ORBD

Joint Base Balad Airport

Balad, Iraq
TAF ORBD 221055Z 2211/2317 34009KT 9000 FUHZ FEW100 BKN200 QNH3008INS BECMG 2214/2215 34006KT 8000 FUHZ BKN100 BKN150 QNH3011INS BECMG 2221/2222 29006KT 5000 FUBR SCT100 BKN180 QNH3013INS TEMPO 2302/2307 2800 FUBR FEW000 BR FEW000 BECMG 2306/2307 VRB04KT 5000 FUBR FEW100 QNH3016INS BECMG 2314/2315 35005KT 8000 FUHZ FEW250 QNH3012INS TX13/2211Z TN02/2304Z
Issued Valid From Valid To
Jan-22 @ 10:55 UTC
(7 hours ago)
Jan-22 @ 11:00 UTC
(7 hours ago)
Jan-23 @ 17:00 UTC
(in 23 hours)
Expired Click to View Jan-22 @ 11:00 to Jan-22 @ 14:00
TAF ORBD 221055Z 2211/2317 34009KT 9000 FUHZ FEW100 BKN200 QNH3008INS
Wind Visibility Clouds Conditions Readings
340° at 9 knots 8,996 meters
  • Few at 10,000' AGL
  • Broken at 20,000' AGL
  • Smoke
  • Haze
Altimeter 30.09" Hg
Pressure 1018.92 hPa
Becoming Jan-22 @ 14:00 to Jan-22 @ 21:00
BECMG 2214/2215 34006KT 8000 FUHZ BKN100 BKN150 QNH3011INS
Wind Visibility Clouds Conditions Readings
340° at 6 knots 7,998 meters
  • Broken at 10,000' AGL
  • Broken at 15,000' AGL
  • Smoke
  • Haze
Altimeter 30.12" Hg
Pressure 1019.92 hPa
Becoming Jan-22 @ 21:00 to Jan-23 @ 06:00
BECMG 2221/2222 29006KT 5000 FUBR SCT100 BKN180 QNH3013INS
Wind Visibility Clouds Conditions Readings
290° at 6 knots 5,005 meters
  • Scattered at 10,000' AGL
  • Broken at 18,000' AGL
  • Smoke
  • Mist
Altimeter 30.12" Hg
Pressure 1019.92 hPa
Temporary Jan-23 @ 02:00 to Jan-23 @ 07:00
TEMPO 2302/2307 2800 FUBR FEW000 BR FEW000
Visibility Clouds Conditions
2,800 meters
  • Few
  • Few
  • Smoke
  • Mist
  • Mist
Becoming Jan-23 @ 06:00 to Jan-23 @ 14:00
BECMG 2306/2307 VRB04KT 5000 FUBR FEW100 QNH3016INS
Wind Visibility Clouds Conditions Readings
Variable at 4 knots 5,005 meters
  • Few at 10,000' AGL
  • Smoke
  • Mist
Altimeter 30.15" Hg
Pressure 1020.92 hPa
Becoming Jan-23 @ 14:00 to Jan-23 @ 17:00
BECMG 2314/2315 35005KT 8000 FUHZ FEW250 QNH3012INS TX13/2211Z TN02/2304Z
Wind Visibility Clouds Conditions Readings
350° at 5 knots 7,998 meters
  • Few at 25,000' AGL
  • Smoke
  • Haze
Altimeter 30.12" Hg
Pressure 1019.92 hPa
TAF ORBD 221055Z 2211/2317 34009KT 9000 FUHZ FEW100 BKN200 QNH3008INS BECMG 2214/2215 34006KT 8000 FUHZ BKN100 BKN150 QNH3011INS BECMG 2221/2222 29006KT 5000 FUBR SCT100 BKN180 QNH3013INS TEMPO 2302/2307 2800 FUBR FEW000 BR FEW000 BECMG 2306/2307 VRB04KT 5000 FUBR FEW100 QNH3016INS BECMG 2314/2315 35005KT 8000 FUHZ FEW250 QNH3012INS TX13/2211Z TN02/2304Z
Issued Jan-22 @ 10:55 UTC
(7 hours ago)
Valid From Jan-22 @ 11:00 UTC
(7 hours ago)
Valid To Jan-23 @ 17:00 UTC
(in 23 hours)
Jan-22 @ 11:00 - Jan-22 @ 14:00
Wind Visibility
340° at 9 knots 8,996 meters
Clouds
  • Few at 10,000' AGL
  • Broken at 20,000' AGL
Conditions
  • Smoke
  • Haze
Becoming Jan-22 @ 14:00 - Jan-22 @ 21:00
Wind Visibility
340° at 6 knots 7,998 meters
Clouds
  • Broken at 10,000' AGL
  • Broken at 15,000' AGL
Conditions
  • Smoke
  • Haze
Becoming Jan-22 @ 21:00 - Jan-23 @ 06:00
Wind Visibility
290° at 6 knots 5,005 meters
Clouds
  • Scattered at 10,000' AGL
  • Broken at 18,000' AGL
Conditions
  • Smoke
  • Mist
Temporary Jan-23 @ 02:00 - Jan-23 @ 07:00
Clouds
  • Few
  • Few
Conditions
  • Smoke
  • Mist
  • Mist
Becoming Jan-23 @ 06:00 - Jan-23 @ 14:00
Wind Visibility
Variable at 4 knots 5,005 meters
Clouds
  • Few at 10,000' AGL
Conditions
  • Smoke
  • Mist
Becoming Jan-23 @ 14:00 - Jan-23 @ 17:00
Wind Visibility
350° at 5 knots 7,998 meters
Clouds
  • Few at 25,000' AGL
Conditions
  • Smoke
  • Haze